createdAt,value
2019-04-04T00:00:41.157Z,82.10
2019-04-04T00:03:12.499Z,82.40
2019-04-04T00:05:42.347Z,82.40
2019-04-04T00:08:12.798Z,82.80
2019-04-04T00:10:43.821Z,82.80
2019-04-04T00:13:14.236Z,82.80
2019-04-04T00:15:45.524Z,83.20
2019-04-04T00:18:15.630Z,83.30
2019-04-04T00:20:45.395Z,83.30
2019-04-04T00:23:15.810Z,83.50
2019-04-04T00:25:45.540Z,83.80
2019-04-04T00:28:15.588Z,83.60
2019-04-04T00:30:48.259Z,83.90
2019-04-04T00:33:16.861Z,83.90
2019-04-04T00:35:46.549Z,83.70
2019-04-04T00:38:16.366Z,84.10
2019-04-04T00:40:46.028Z,84.20
2019-04-04T00:43:15.922Z,84.50
2019-04-04T00:45:45.686Z,84.60
2019-04-04T00:48:15.772Z,85.00
2019-04-04T00:50:45.614Z,84.90
2019-04-04T00:53:15.865Z,85.00
2019-04-04T00:55:46.924Z,85.10
2019-04-04T00:58:16.869Z,85.40
2019-04-04T01:00:46.652Z,85.20
2019-04-04T01:03:16.536Z,85.20
2019-04-04T01:05:46.834Z,85.60
2019-04-04T01:08:18.003Z,85.50
2019-04-04T01:10:49.553Z,85.60
2019-04-04T01:13:19.268Z,85.70
2019-04-04T01:15:48.984Z,85.60
2019-04-04T01:18:19.041Z,85.80
2019-04-04T01:20:50.391Z,85.80
2019-04-04T01:23:20.292Z,86.30
2019-04-04T01:25:50.056Z,86.60
2019-04-04T01:28:19.780Z,86.20
2019-04-04T01:30:49.535Z,86.60
2019-04-04T01:33:20.467Z,86.40
2019-04-04T01:35:53.783Z,86.50
2019-04-04T01:38:22.175Z,86.70
2019-04-04T01:40:54.789Z,86.90
2019-04-04T01:43:23.475Z,86.80
2019-04-04T01:45:53.243Z,86.80
2019-04-04T01:48:23.071Z,86.80
2019-04-04T01:50:53.785Z,86.50
2019-04-04T01:53:24.003Z,86.60
2019-04-04T01:55:53.771Z,86.90
2019-04-04T01:58:23.660Z,87.20
2019-04-04T02:00:53.259Z,87.20
2019-04-04T02:03:23.379Z,87.10
2019-04-04T02:05:52.893Z,87.20
2019-04-04T02:08:22.515Z,87.40
2019-04-04T02:10:52.188Z,87.90
2019-04-04T02:13:21.760Z,87.80
2019-04-04T02:15:51.402Z,88.20
2019-04-04T02:18:23.299Z,88.30
2019-04-04T02:20:52.761Z,88.80
2019-04-04T02:23:22.643Z,88.70
2019-04-04T02:25:52.497Z,88.70
2019-04-04T02:28:22.289Z,89.00
2019-04-04T02:30:52.218Z,89.00
2019-04-04T02:33:22.439Z,88.90
2019-04-04T02:35:52.411Z,89.10
2019-04-04T02:38:22.067Z,89.40
2019-04-04T02:40:51.673Z,89.10
2019-04-04T02:43:21.525Z,89.40
2019-04-04T02:45:51.173Z,89.60
2019-04-04T02:48:24.420Z,89.60
2019-04-04T02:53:27.387Z,90.10
2019-04-04T02:56:02.296Z,89.40
2019-04-04T02:58:28.868Z,89.40
2019-04-04T03:01:00.266Z,88.50
2019-04-04T03:03:30.164Z,88.60
2019-04-04T03:06:00.051Z,89.00
2019-04-04T03:08:29.659Z,89.10
2019-04-04T03:10:59.542Z,88.70
2019-04-04T03:13:32.155Z,88.20
2019-04-04T03:16:00.533Z,88.00
2019-04-04T03:18:30.405Z,88.50
2019-04-04T03:21:00.221Z,88.60
2019-04-04T03:23:32.780Z,89.00
2019-04-04T03:26:01.788Z,89.60
2019-04-04T03:28:32.377Z,89.60
2019-04-04T03:31:03.580Z,89.50
2019-04-04T03:33:33.520Z,89.40
2019-04-04T03:36:03.605Z,89.50
2019-04-04T03:38:33.143Z,89.30
2019-04-04T03:41:02.977Z,88.90
2019-04-04T03:43:32.680Z,89.10
2019-04-04T03:46:02.790Z,89.90
2019-04-04T03:48:33.013Z,89.80
2019-04-04T03:51:04.629Z,89.60
2019-04-04T03:53:34.693Z,89.80
2019-04-04T03:56:05.099Z,89.90
2019-04-04T03:58:34.684Z,90.00
2019-04-04T04:01:04.662Z,90.00
2019-04-04T04:03:34.677Z,90.20
2019-04-04T04:06:08.436Z,90.60
2019-04-04T04:08:35.969Z,90.30
2019-04-04T04:11:06.160Z,90.40
2019-04-04T04:13:36.206Z,91.10
2019-04-04T04:16:06.212Z,91.50
2019-04-04T04:18:37.026Z,91.50
2019-04-04T04:21:10.836Z,91.40
2019-04-04T04:23:38.513Z,91.50
2019-04-04T04:26:09.730Z,91.30
2019-04-04T04:28:40.252Z,91.20
2019-04-04T04:31:14.174Z,90.90
2019-04-04T04:33:41.365Z,91.00
2019-04-04T04:36:15.282Z,91.40
2019-04-04T04:38:42.494Z,91.40
2019-04-04T04:41:12.115Z,91.80
2019-04-04T04:43:41.957Z,92.10
2019-04-04T04:46:11.564Z,91.90
2019-04-04T04:48:41.170Z,91.90
2019-04-04T04:51:12.018Z,92.10
2019-04-04T04:53:42.932Z,92.20
2019-04-04T04:56:13.372Z,92.50
2019-04-04T04:58:43.118Z,92.70
2019-04-04T05:01:13.207Z,92.70
2019-04-04T05:03:42.884Z,92.50
2019-04-04T05:06:13.213Z,93.00
2019-04-04T05:08:43.075Z,92.80
2019-04-04T05:11:14.640Z,92.90
2019-04-04T05:13:44.345Z,93.00
2019-04-04T05:16:14.103Z,93.50
2019-04-04T05:18:43.763Z,93.60
2019-04-04T05:21:24.489Z,93.60
2019-04-04T05:23:47.105Z,93.80
2019-04-04T05:26:17.021Z,93.90
2019-04-04T05:28:46.645Z,94.10
2019-04-04T05:31:18.136Z,93.80
2019-04-04T05:33:48.042Z,94.10
2019-04-04T05:36:18.023Z,94.20
2019-04-04T05:38:47.872Z,94.20
2019-04-04T05:41:17.596Z,94.10
2019-04-04T05:43:47.411Z,94.10
2019-04-04T05:46:18.963Z,94.00
2019-04-04T05:48:48.597Z,94.20
2019-04-04T05:51:19.021Z,94.20
2019-04-04T05:53:49.639Z,94.10
2019-04-04T05:56:19.715Z,94.20
2019-04-04T05:58:52.787Z,94.10
2019-04-04T06:01:25.341Z,93.90
2019-04-04T06:03:54.930Z,93.90
2019-04-04T06:06:24.967Z,93.80
2019-04-04T06:08:55.084Z,94.00
2019-04-04T06:11:25.523Z,94.00
2019-04-04T06:13:56.967Z,93.80
2019-04-04T06:16:27.243Z,93.90
2019-04-04T06:18:57.274Z,93.50
2019-04-04T06:21:27.281Z,93.20
2019-04-04T06:23:56.968Z,93.00
2019-04-04T06:26:26.751Z,92.70
2019-04-04T06:28:56.628Z,92.70
2019-04-04T06:31:30.482Z,91.90
2019-04-04T06:33:57.876Z,91.60
2019-04-04T06:36:27.744Z,91.40
2019-04-04T06:38:57.761Z,91.30
2019-04-04T06:41:28.307Z,91.30
2019-04-04T06:44:00.169Z,90.80
2019-04-04T06:46:30.185Z,90.80
2019-04-04T06:48:59.858Z,90.80
2019-04-04T06:51:29.415Z,90.60
2019-04-04T06:53:59.853Z,90.60
2019-04-04T06:56:31.745Z,90.10
2019-04-04T06:59:01.217Z,89.70
2019-04-04T07:01:31.045Z,88.20
2019-04-04T07:04:00.972Z,87.50
2019-04-04T07:06:30.891Z,86.70
2019-04-04T07:09:01.440Z,86.80
2019-04-04T07:11:31.159Z,85.90
2019-04-04T07:14:06.728Z,86.30
2019-04-04T07:16:36.824Z,85.30
2019-04-04T07:19:08.041Z,84.50
2019-04-04T07:21:39.272Z,84.40
2019-04-04T07:24:09.295Z,83.50
2019-04-04T07:26:39.369Z,82.60
2019-04-04T07:31:44.976Z,80.90
2019-04-04T07:34:14.678Z,80.50
2019-04-04T07:36:46.174Z,79.60
2019-04-04T07:39:16.007Z,78.40
2019-04-04T07:41:45.735Z,77.50
2019-04-04T07:44:15.818Z,77.60
2019-04-04T07:46:45.917Z,77.40
2019-04-04T07:49:16.081Z,76.60
2019-04-04T07:51:46.613Z,75.90
2019-04-04T07:54:16.436Z,75.30
2019-04-04T07:56:48.764Z,76.50
2019-04-04T07:59:17.466Z,75.50
2019-04-04T08:01:51.302Z,73.50
2019-04-04T08:04:19.397Z,73.00
2019-04-04T08:06:49.281Z,71.70
2019-04-04T08:09:18.996Z,70.20
2019-04-04T08:11:48.746Z,69.80
2019-04-04T08:14:25.511Z,68.50
2019-04-04T08:16:55.806Z,67.60
2019-04-04T08:19:25.621Z,66.40
2019-04-04T08:21:55.877Z,66.00
2019-04-04T08:24:25.601Z,65.60
2019-04-04T08:26:55.602Z,65.10
2019-04-04T08:29:25.526Z,64.90
2019-04-04T08:31:55.542Z,64.30
2019-04-04T08:34:26.167Z,63.40
2019-04-04T08:36:56.073Z,63.80
2019-04-04T08:39:25.795Z,62.50
2019-04-04T08:41:55.776Z,62.30
2019-04-04T08:44:25.764Z,61.20
2019-04-04T08:46:55.970Z,60.10
2019-04-04T08:49:25.679Z,59.70
2019-04-04T08:51:55.739Z,58.70
2019-04-04T08:54:27.040Z,57.40
2019-04-04T08:56:57.001Z,57.00
2019-04-04T08:59:26.889Z,56.40
2019-04-04T09:01:58.007Z,54.90
2019-04-04T09:04:27.808Z,54.60
2019-04-04T09:06:57.927Z,52.70
2019-04-04T09:09:28.184Z,50.60
2019-04-04T09:11:57.920Z,50.30
2019-04-04T09:14:27.783Z,49.70
2019-04-04T09:16:58.115Z,49.50
2019-04-04T09:19:28.348Z,49.20
2019-04-04T09:22:00.254Z,48.70
2019-04-04T09:24:30.431Z,48.20
2019-04-04T09:27:00.803Z,47.20
2019-04-04T09:29:32.715Z,46.90
2019-04-04T09:32:02.964Z,46.90
2019-04-04T09:34:32.814Z,46.60
2019-04-04T09:37:02.665Z,44.90
2019-04-04T09:39:33.909Z,44.60
2019-04-04T09:42:04.032Z,44.10
2019-04-04T09:44:34.717Z,43.50
2019-04-04T09:47:06.363Z,43.10
2019-04-04T09:49:36.205Z,41.50
2019-04-04T09:52:06.407Z,40.00
2019-04-04T09:54:36.781Z,39.10
2019-04-04T09:57:08.060Z,38.80
2019-04-04T09:59:38.897Z,38.70
2019-04-04T10:02:09.999Z,39.50
2019-04-04T10:04:39.839Z,40.50
2019-04-04T10:07:09.999Z,41.70
2019-04-04T10:09:39.716Z,41.40
2019-04-04T10:12:10.271Z,41.30
2019-04-04T10:14:40.152Z,41.10
2019-04-04T10:17:11.318Z,41.00
2019-04-04T10:22:12.961Z,41.60
2019-04-04T10:24:42.784Z,42.40
2019-04-04T10:27:13.063Z,43.00
2019-04-04T10:29:42.784Z,43.90
2019-04-04T10:32:12.731Z,43.80
2019-04-04T10:34:42.765Z,42.00
2019-04-04T10:37:12.596Z,41.70
2019-04-04T10:39:43.496Z,40.70
2019-04-04T10:42:13.759Z,38.90
2019-04-04T10:44:43.468Z,38.00
2019-04-04T10:47:13.971Z,37.50
2019-04-04T10:49:43.736Z,37.40
2019-04-04T10:52:14.067Z,37.40
2019-04-04T10:54:45.067Z,37.50
2019-04-04T10:57:14.905Z,37.00
2019-04-04T10:59:45.092Z,37.60
2019-04-04T11:02:15.365Z,36.60
2019-04-04T11:04:46.036Z,35.50
2019-04-04T11:07:16.479Z,35.60
2019-04-04T11:09:46.187Z,36.90
2019-04-04T11:12:16.237Z,38.30
2019-04-04T11:14:46.999Z,40.40
2019-04-04T11:17:16.900Z,41.80
2019-04-04T11:19:46.879Z,42.60
2019-04-04T11:22:16.915Z,43.40
2019-04-04T11:24:47.098Z,44.40
2019-04-04T11:27:17.627Z,45.20
2019-04-04T11:29:47.483Z,46.00
2019-04-04T11:32:21.452Z,47.10
2019-04-04T11:34:53.351Z,47.50
2019-04-04T11:37:22.957Z,48.60
2019-04-04T11:39:54.889Z,49.70
2019-04-04T11:42:25.128Z,50.20
2019-04-04T11:44:54.990Z,50.90
2019-04-04T11:47:24.894Z,52.10
2019-04-04T11:49:55.082Z,52.20
2019-04-04T11:52:25.676Z,51.70
2019-04-04T11:55:02.562Z,51.80
2019-04-04T11:57:32.491Z,51.90
2019-04-04T12:00:02.303Z,52.20
2019-04-04T12:02:33.014Z,54.20
2019-04-04T12:05:02.706Z,53.10
2019-04-04T12:07:33.136Z,54.50
2019-04-04T12:10:07.590Z,53.90
2019-04-04T12:12:34.344Z,53.90
2019-04-04T12:15:05.741Z,53.50
2019-04-04T12:17:35.751Z,53.90
2019-04-04T12:20:08.054Z,54.30
2019-04-04T12:22:37.790Z,54.60
2019-04-04T12:25:08.314Z,54.30
2019-04-04T12:27:37.992Z,54.60
2019-04-04T12:30:09.270Z,55.00
2019-04-04T12:32:39.682Z,55.00
2019-04-04T12:35:09.958Z,56.00
2019-04-04T12:37:40.078Z,56.10
2019-04-04T12:40:19.697Z,54.90
2019-04-04T12:42:41.604Z,54.90
2019-04-04T12:45:11.932Z,55.40
2019-04-04T12:47:42.142Z,56.50
2019-04-04T12:50:12.342Z,56.50
2019-04-04T12:52:42.232Z,55.90
2019-04-04T12:55:12.556Z,56.30
2019-04-04T12:57:42.831Z,56.50
2019-04-04T13:00:14.074Z,56.30
2019-04-04T13:02:44.043Z,56.50
2019-04-04T13:05:14.499Z,56.80
2019-04-04T13:07:45.564Z,56.00
2019-04-04T13:10:15.957Z,55.10
2019-04-04T13:12:45.848Z,55.10
2019-04-04T13:15:16.331Z,54.00
2019-04-04T13:17:46.534Z,52.90
2019-04-04T13:20:16.582Z,53.10
2019-04-04T13:22:46.515Z,52.80
2019-04-04T13:25:16.764Z,53.50
2019-04-04T13:27:46.636Z,54.10
2019-04-04T13:30:16.789Z,54.00
2019-04-04T13:32:46.816Z,53.50
2019-04-04T13:35:16.951Z,53.30
2019-04-04T13:37:46.928Z,53.30
2019-04-04T13:40:17.492Z,52.90
2019-04-04T13:42:47.550Z,53.60
2019-04-04T13:45:17.564Z,53.40
2019-04-04T13:47:47.550Z,52.80
2019-04-04T13:50:20.383Z,53.20
2019-04-04T13:52:50.236Z,52.60
2019-04-04T13:55:20.553Z,52.50
2019-04-04T13:57:50.618Z,53.20
2019-04-04T14:00:21.561Z,52.80
2019-04-04T14:02:52.331Z,52.70
2019-04-04T14:05:22.394Z,53.00
2019-04-04T14:07:52.553Z,53.40
2019-04-04T14:10:22.893Z,53.40
2019-04-04T14:12:52.808Z,53.60
2019-04-04T14:15:22.883Z,55.00
2019-04-04T14:17:53.052Z,55.10
2019-04-04T14:20:23.189Z,54.90
2019-04-04T14:22:53.516Z,55.50
2019-04-04T14:25:23.724Z,55.70
2019-04-04T14:27:53.952Z,56.60
2019-04-04T14:30:23.821Z,56.10
2019-04-04T14:32:54.145Z,56.00
2019-04-04T14:35:25.478Z,56.10
2019-04-04T14:37:55.899Z,56.10
2019-04-04T14:40:26.301Z,56.40
2019-04-04T14:42:56.517Z,56.10
2019-04-04T14:45:26.792Z,55.80
2019-04-04T14:47:56.775Z,56.10
2019-04-04T14:50:28.173Z,56.40
2019-04-04T14:52:58.689Z,56.70
2019-04-04T14:55:29.106Z,56.90
2019-04-04T14:57:59.298Z,57.10
2019-04-04T15:00:29.835Z,57.30
2019-04-04T15:02:59.737Z,57.50
2019-04-04T15:05:29.545Z,58.30
2019-04-04T15:08:01.052Z,58.60
2019-04-04T15:10:30.875Z,59.00
2019-04-04T15:13:00.751Z,59.20
2019-04-04T15:15:30.790Z,58.90
2019-04-04T15:18:00.412Z,59.40
2019-04-04T15:20:30.867Z,59.40
2019-04-04T15:23:00.591Z,59.40
2019-04-04T15:25:30.667Z,59.20
2019-04-04T15:28:00.495Z,60.00
2019-04-04T15:30:30.510Z,60.00
2019-04-04T15:33:02.626Z,60.30
2019-04-04T15:35:31.874Z,60.50
2019-04-04T15:38:01.725Z,60.60
2019-04-04T15:40:32.070Z,61.20
2019-04-04T15:43:02.037Z,61.80
2019-04-04T15:45:32.071Z,62.00
2019-04-04T15:48:02.415Z,62.80
2019-04-04T15:50:32.180Z,63.60
2019-04-04T15:53:02.309Z,64.40
2019-04-04T15:55:32.188Z,64.60
2019-04-04T15:58:01.927Z,65.00
2019-04-04T16:00:32.308Z,65.60
2019-04-04T16:03:02.947Z,66.30
2019-04-04T16:05:33.116Z,66.70
2019-04-04T16:08:04.220Z,66.90
2019-04-04T16:10:34.646Z,67.60
2019-04-04T16:13:04.756Z,67.40
2019-04-04T16:15:36.011Z,67.60
2019-04-04T16:18:06.112Z,67.80
2019-04-04T16:20:36.116Z,68.50
2019-04-04T16:23:06.807Z,69.20
2019-04-04T16:25:36.729Z,69.80
2019-04-04T16:28:06.898Z,70.30
2019-04-04T16:30:37.131Z,70.50
2019-04-04T16:33:07.255Z,70.80
2019-04-04T16:35:39.096Z,71.40
2019-04-04T16:38:09.072Z,71.50
2019-04-04T16:40:39.084Z,72.10
2019-04-04T16:43:09.282Z,72.50
2019-04-04T16:45:39.585Z,72.50
2019-04-04T16:48:09.696Z,72.50
2019-04-04T16:50:39.996Z,73.10
2019-04-04T16:53:09.931Z,73.10
2019-04-04T16:55:40.174Z,73.30
2019-04-04T16:58:10.489Z,73.60
2019-04-04T17:00:40.365Z,73.70
2019-04-04T17:03:10.138Z,73.10
2019-04-04T17:05:40.272Z,73.00
2019-04-04T17:08:10.500Z,72.70
2019-04-04T17:10:40.243Z,72.70
2019-04-04T17:13:12.207Z,73.10
2019-04-04T17:15:43.218Z,72.60
2019-04-04T17:18:13.112Z,72.90
2019-04-04T17:20:42.994Z,72.90
2019-04-04T17:23:12.891Z,74.50
2019-04-04T17:25:42.604Z,74.40
2019-04-04T17:28:12.781Z,74.20
2019-04-04T17:30:43.868Z,74.10
2019-04-04T17:33:13.832Z,74.40
2019-04-04T17:35:43.587Z,74.70
2019-04-04T17:38:13.436Z,75.10
2019-04-04T17:40:43.216Z,75.20
2019-04-04T17:43:22.055Z,75.30
2019-04-04T17:45:51.876Z,75.30
2019-04-04T17:48:22.188Z,75.90
2019-04-04T17:50:52.226Z,75.80
2019-04-04T17:53:22.508Z,75.70
2019-04-04T17:55:54.835Z,75.50
2019-04-04T17:58:24.115Z,75.50
2019-04-04T18:00:54.145Z,75.60
2019-04-04T18:03:24.054Z,75.70
2019-04-04T18:05:53.836Z,76.00
2019-04-04T18:08:23.722Z,76.50
2019-04-04T18:10:53.782Z,76.70
2019-04-04T18:13:23.887Z,77.40
2019-04-04T18:15:53.976Z,77.30
2019-04-04T18:18:24.296Z,77.10
2019-04-04T18:20:54.086Z,77.00
2019-04-04T18:23:23.806Z,77.20
2019-04-04T18:25:53.740Z,77.10
2019-04-04T18:28:23.503Z,77.10
2019-04-04T18:30:53.451Z,77.00
2019-04-04T18:33:23.423Z,77.10
2019-04-04T18:35:54.272Z,76.90
2019-04-04T18:38:24.332Z,76.80
2019-04-04T18:40:53.945Z,76.50
2019-04-04T18:43:23.958Z,76.40
2019-04-04T18:45:53.723Z,76.60
2019-04-04T18:48:25.108Z,77.00
2019-04-04T18:50:55.093Z,76.80
2019-04-04T18:53:25.093Z,76.80
2019-04-04T18:55:55.074Z,77.00
2019-04-04T18:58:24.831Z,76.90
2019-04-04T19:00:54.504Z,77.00
2019-04-04T19:03:25.038Z,76.80
2019-04-04T19:05:54.986Z,76.70
2019-04-04T19:08:25.355Z,77.00
2019-04-04T19:10:55.158Z,77.50
2019-04-04T19:13:25.101Z,77.50
2019-04-04T19:15:54.933Z,77.60
2019-04-04T19:18:24.849Z,78.00
2019-04-04T19:20:54.581Z,78.10
2019-04-04T19:23:24.595Z,77.90
2019-04-04T19:25:54.517Z,78.10
2019-04-04T19:28:24.223Z,78.00
2019-04-04T19:30:54.073Z,77.90
2019-04-04T19:33:24.918Z,78.20
2019-04-04T19:35:54.518Z,78.40
2019-04-04T19:38:24.699Z,78.40
2019-04-04T19:40:54.649Z,78.30
2019-04-04T19:43:24.689Z,78.00
2019-04-04T19:45:56.273Z,77.90
2019-04-04T19:48:26.024Z,77.90
2019-04-04T19:50:55.997Z,77.80
2019-04-04T19:53:25.762Z,77.80
2019-04-04T19:55:55.585Z,77.80
2019-04-04T19:58:25.651Z,78.20
2019-04-04T20:00:55.875Z,78.00
2019-04-04T20:03:25.896Z,78.00
2019-04-04T20:05:56.185Z,77.90
2019-04-04T20:08:26.132Z,78.00
2019-04-04T20:10:55.798Z,78.00
2019-04-04T20:13:31.085Z,77.90
2019-04-04T20:15:57.364Z,78.10
2019-04-04T20:18:28.071Z,78.20
2019-04-04T20:20:58.702Z,78.70
2019-04-04T20:23:28.360Z,78.80
2019-04-04T20:25:59.158Z,78.60
2019-04-04T20:28:29.037Z,78.70
2019-04-04T20:30:58.744Z,78.90
2019-04-04T20:33:28.304Z,78.70
2019-04-04T20:35:58.271Z,78.80
2019-04-04T20:38:28.155Z,79.20
2019-04-04T20:40:57.879Z,79.30
2019-04-04T20:43:27.570Z,79.00
2019-04-04T20:45:57.302Z,79.30
2019-04-04T20:48:27.094Z,79.10
2019-04-04T20:50:57.369Z,79.20
2019-04-04T20:53:27.187Z,79.40
2019-04-04T20:55:57.139Z,79.20
2019-04-04T20:58:26.961Z,79.10
2019-04-04T21:00:56.831Z,79.40
2019-04-04T21:03:26.682Z,79.30
2019-04-04T21:05:56.886Z,79.60
2019-04-04T21:08:26.847Z,79.70
2019-04-04T21:10:56.715Z,79.80
2019-04-04T21:13:26.679Z,80.10
2019-04-04T21:15:56.641Z,80.30
2019-04-04T21:18:26.479Z,80.20
2019-04-04T21:20:56.196Z,80.00
2019-04-04T21:23:27.042Z,80.00
2019-04-04T21:25:57.750Z,79.80
2019-04-04T21:28:28.012Z,80.00
2019-04-04T21:30:57.832Z,80.30
2019-04-04T21:33:27.564Z,79.80
2019-04-04T21:35:57.242Z,79.80
2019-04-04T21:38:27.140Z,79.80
2019-04-04T21:40:57.011Z,79.90
2019-04-04T21:43:27.796Z,79.90
2019-04-04T21:45:57.405Z,80.00
2019-04-04T21:48:27.394Z,79.80
2019-04-04T21:50:57.066Z,79.70
2019-04-04T21:53:26.809Z,79.90
2019-04-04T21:55:56.578Z,80.60
2019-04-04T21:58:26.364Z,79.60
2019-04-04T22:00:57.917Z,79.80
2019-04-04T22:03:27.924Z,79.80
2019-04-04T22:05:57.546Z,79.60
2019-04-04T22:08:27.619Z,79.80
2019-04-04T22:10:57.516Z,79.50
2019-04-04T22:13:27.219Z,79.80
2019-04-04T22:15:56.792Z,79.60
2019-04-04T22:18:26.529Z,79.30
2019-04-04T22:20:56.214Z,79.50
2019-04-04T22:23:26.060Z,79.70
2019-04-04T22:25:55.871Z,79.50
2019-04-04T22:28:25.525Z,79.60
2019-04-04T22:30:55.347Z,79.50
2019-04-04T22:33:25.052Z,79.40
2019-04-04T22:35:54.813Z,79.50
2019-04-04T22:38:24.627Z,79.80
2019-04-04T22:40:54.330Z,79.90
2019-04-04T22:43:24.373Z,79.90
2019-04-04T22:45:54.196Z,79.70
2019-04-04T22:48:23.884Z,79.80
2019-04-04T22:50:53.551Z,80.00
2019-04-04T22:53:23.856Z,80.20
2019-04-04T22:55:53.805Z,80.60
2019-04-04T22:58:28.511Z,80.80
2019-04-04T23:00:55.555Z,80.80
2019-04-04T23:03:27.266Z,80.80
2019-04-04T23:05:57.121Z,80.80
2019-04-04T23:08:26.951Z,80.80
2019-04-04T23:10:57.373Z,80.60
2019-04-04T23:13:27.496Z,80.60
2019-04-04T23:15:57.448Z,80.80
2019-04-04T23:18:27.100Z,80.40
2019-04-04T23:20:56.894Z,80.50
2019-04-04T23:23:27.120Z,80.80
2019-04-04T23:25:57.331Z,80.90
2019-04-04T23:28:27.075Z,81.00
2019-04-04T23:30:56.906Z,81.30
2019-04-04T23:33:26.673Z,81.20
2019-04-04T23:35:56.528Z,81.80
2019-04-04T23:38:26.408Z,82.10
2019-04-04T23:40:56.221Z,82.10
2019-04-04T23:43:26.090Z,82.30
2019-04-04T23:45:55.808Z,82.90
2019-04-04T23:48:25.577Z,82.30
2019-04-04T23:50:55.157Z,82.30
2019-04-04T23:53:24.935Z,82.40
2019-04-04T23:55:55.018Z,82.50
2019-04-04T23:58:24.959Z,82.30
